Terminal Aerodrome Forecast
Issued by NWS Duluth, MN

Home | Current Version | Previous Version | Text Only | Print | Product List | Glossary On
Versions: 1 2 3 4 5 6 7 8 9 10 11 12 13 14 15 16 17 18 19 20 21 22 23 24 25 26 27 28 29
422
FTUS43 KDLH 120937 AAA
TAFINL
TAF AMD
KINL 120937Z 1210/1306 28004KT P6SM SCT007
      TEMPO 1210/1212 BKN007
     FM121200 29005KT P6SM SCT010 BKN090
      TEMPO 1213/1216 BKN015
     FM121700 VRB03KT P6SM BKN020
     FM122300 VRB03KT 6SM -SN BKN012 OVC025=

USA.gov is the U.S. government's official web portal to all federal, state and local government web resources and services.